createdAt,value
2022-11-28T00:02:11.611Z,100698.38
2022-11-28T00:04:39.742Z,100704.59
2022-11-28T00:07:07.894Z,100702.66
2022-11-28T00:09:36.108Z,100698.97
2022-11-28T00:12:04.032Z,100698.97
2022-11-28T00:14:31.960Z,100698.97
2022-11-28T00:16:59.848Z,100694.59
2022-11-28T00:19:29.341Z,100689.41
2022-11-28T00:21:57.308Z,100699.25
2022-11-28T00:24:26.252Z,100697.59
2022-11-28T00:26:54.191Z,100693.16
2022-11-28T00:29:22.116Z,100691.38
2022-11-28T00:31:50.142Z,100685.25
2022-11-28T00:34:18.027Z,100691.38
2022-11-28T00:36:47.631Z,100691.13
2022-11-28T00:39:15.667Z,100683.72
2022-11-28T00:41:43.684Z,100674.78
2022-11-28T00:44:11.615Z,100681.38
2022-11-28T00:46:39.561Z,100688.06
2022-11-28T00:49:07.483Z,100685.94
2022-11-28T00:51:35.801Z,100681.50
2022-11-28T00:54:05.723Z,100686.59
2022-11-28T00:56:34.711Z,100687.59
2022-11-28T00:59:02.641Z,100685.09
2022-11-28T01:01:31.517Z,100678.34
2022-11-28T01:04:02.243Z,100663.31
2022-11-28T01:06:31.128Z,100677.25
2022-11-28T01:08:59.366Z,100679.06
2022-11-28T01:11:28.636Z,100672.00
2022-11-28T01:13:56.634Z,100659.69
2022-11-28T01:16:24.783Z,100657.50
2022-11-28T01:18:52.731Z,100648.31
2022-11-28T01:21:20.613Z,100639.13
2022-11-28T01:23:48.540Z,100642.25
2022-11-28T01:26:17.948Z,100639.16
2022-11-28T01:28:47.399Z,100639.31
2022-11-28T01:31:17.590Z,100628.16
2022-11-28T01:33:45.590Z,100636.94
2022-11-28T01:36:13.619Z,100638.81
2022-11-28T01:38:41.512Z,100632.56
2022-11-28T01:41:09.624Z,100625.44
2022-11-28T01:43:37.690Z,100635.13
2022-11-28T01:46:07.121Z,100632.44
2022-11-28T01:48:37.231Z,100628.25
2022-11-28T01:51:07.179Z,100630.47
2022-11-28T01:53:36.344Z,100631.91
2022-11-28T01:56:07.440Z,100645.00
2022-11-28T01:58:35.798Z,100658.69
2022-11-28T02:01:03.828Z,100662.56
2022-11-28T02:03:36.027Z,100671.09
2022-11-28T02:06:03.940Z,100651.69
2022-11-28T02:08:33.700Z,100641.34
2022-11-28T02:11:17.336Z,100623.84
2022-11-28T02:13:48.403Z,100636.16
2022-11-28T02:16:28.190Z,100633.06
2022-11-28T02:19:00.992Z,100636.84
2022-11-28T02:21:49.028Z,100623.84
2022-11-28T02:24:49.914Z,100612.47
2022-11-28T02:27:33.720Z,100609.81
2022-11-28T02:30:20.082Z,100622.19
2022-11-28T02:33:16.371Z,100604.50
2022-11-28T02:35:51.396Z,100607.03
2022-11-28T02:38:21.906Z,100610.31
2022-11-28T02:40:52.728Z,100603.13
2022-11-28T02:43:23.725Z,100610.03
2022-11-28T02:45:56.988Z,100597.69
2022-11-28T02:48:28.536Z,100593.94
2022-11-28T02:50:58.801Z,100597.53
2022-11-28T02:53:27.000Z,100595.94
2022-11-28T02:55:54.865Z,100589.84
2022-11-28T02:58:22.774Z,100587.25
2022-11-28T03:00:50.775Z,100578.34
2022-11-28T03:03:33.167Z,100573.66
2022-11-28T03:06:03.240Z,100564.50
2022-11-28T03:08:41.790Z,100564.97
2022-11-28T03:11:13.833Z,100561.22
2022-11-28T03:13:42.907Z,100579.59
2022-11-28T03:16:18.823Z,100568.91
2022-11-28T03:18:53.431Z,100572.81
2022-11-28T03:21:25.943Z,100570.63
2022-11-28T03:23:54.693Z,100580.22
2022-11-28T03:26:24.965Z,100570.34
2022-11-28T03:28:56.514Z,100557.88
2022-11-28T03:31:25.772Z,100544.75
2022-11-28T03:33:56.623Z,100545.59
2022-11-28T03:36:26.842Z,100540.44
2022-11-28T03:38:55.796Z,100546.91
2022-11-28T03:41:25.859Z,100561.16
2022-11-28T03:43:56.060Z,100558.41
2022-11-28T03:46:25.157Z,100562.97
2022-11-28T03:48:55.868Z,100564.75
2022-11-28T03:51:25.519Z,100590.91
2022-11-28T03:53:55.604Z,100603.06
2022-11-28T03:56:25.400Z,100600.56
2022-11-28T03:58:55.848Z,100598.13
2022-11-28T04:01:29.506Z,100589.72
2022-11-28T04:04:02.153Z,100588.31
2022-11-28T04:06:31.698Z,100591.25
2022-11-28T04:09:01.807Z,100580.22
2022-11-28T04:11:32.281Z,100568.03
2022-11-28T04:14:01.907Z,100591.06
2022-11-28T04:16:32.521Z,100591.19
2022-11-28T04:19:03.539Z,100563.38
2022-11-28T04:21:32.271Z,100573.00
2022-11-28T04:24:03.020Z,100573.31
2022-11-28T04:26:34.387Z,100569.91
2022-11-28T04:29:02.606Z,100564.81
2022-11-28T04:31:30.592Z,100561.25
2022-11-28T04:33:59.541Z,100557.72
2022-11-28T04:36:28.913Z,100561.16
2022-11-28T04:38:57.505Z,100561.25
2022-11-28T04:41:27.930Z,100546.47
2022-11-28T04:43:58.199Z,100565.00
2022-11-28T04:46:27.588Z,100549.47
2022-11-28T04:48:55.483Z,100562.47
2022-11-28T04:51:24.377Z,100559.81
2022-11-28T04:53:57.709Z,100565.84
2022-11-28T04:56:28.681Z,100560.59
2022-11-28T04:58:56.598Z,100561.53
2022-11-28T05:01:26.818Z,100554.66
2022-11-28T05:03:54.717Z,100561.03
2022-11-28T05:06:26.630Z,100559.44
2022-11-28T05:08:55.927Z,100554.50
2022-11-28T05:11:23.814Z,100554.72
2022-11-28T05:13:51.707Z,100561.91
2022-11-28T05:16:19.846Z,100562.97
2022-11-28T05:18:47.779Z,100557.66
2022-11-28T05:21:15.669Z,100561.25
2022-11-28T05:23:44.788Z,100564.78
2022-11-28T05:26:15.209Z,100570.09
2022-11-28T05:28:44.635Z,100561.25
2022-11-28T05:31:12.859Z,100565.81
2022-11-28T05:33:40.794Z,100556.50
2022-11-28T05:36:13.142Z,100563.53
2022-11-28T05:38:41.472Z,100561.09
2022-11-28T05:41:09.471Z,100573.31
2022-11-28T05:43:38.762Z,100570.72
2022-11-28T05:46:07.058Z,100573.50
2022-11-28T05:48:34.966Z,100577.13
2022-11-28T05:51:05.141Z,100579.78
2022-11-28T05:53:33.060Z,100569.16
2022-11-28T05:56:01.001Z,100584.00
2022-11-28T05:58:28.962Z,100579.28
2022-11-28T06:00:58.566Z,100577.19
2022-11-28T06:03:26.459Z,100570.81
2022-11-28T06:05:54.380Z,100573.25
2022-11-28T06:08:22.211Z,100572.09
2022-11-28T06:10:57.752Z,100574.28
2022-11-28T06:13:25.751Z,100575.97
2022-11-28T06:15:53.710Z,100570.88
2022-11-28T06:18:23.076Z,100589.91
2022-11-28T06:20:51.033Z,100589.00
2022-11-28T06:23:18.941Z,100588.84
2022-11-28T06:25:46.877Z,100600.25
2022-11-28T06:28:14.772Z,100598.38
2022-11-28T06:30:44.849Z,100589.56
2022-11-28T06:33:13.337Z,100593.50
2022-11-28T06:35:42.625Z,100595.25
2022-11-28T06:38:14.204Z,100603.06
2022-11-28T06:40:42.520Z,100598.53
2022-11-28T06:43:10.505Z,100603.00
2022-11-28T06:45:38.502Z,100596.81
2022-11-28T06:48:06.850Z,100599.47
2022-11-28T06:50:34.775Z,100595.06
2022-11-28T06:53:04.102Z,100588.84
2022-11-28T06:55:32.262Z,100587.31
2022-11-28T06:58:00.517Z,100578.06
2022-11-28T07:00:28.641Z,100591.19
2022-11-28T07:02:59.735Z,100591.56
2022-11-28T07:05:27.829Z,100600.34
2022-11-28T07:07:55.780Z,100601.22
2022-11-28T07:10:25.200Z,100596.72
2022-11-28T07:12:55.107Z,100608.19
2022-11-28T07:15:23.017Z,100605.44
2022-11-28T07:17:50.898Z,100604.44
2022-11-28T07:20:18.847Z,100596.28
2022-11-28T07:22:47.789Z,100597.94
2022-11-28T07:25:16.157Z,100609.47
2022-11-28T07:27:45.410Z,100608.47
2022-11-28T07:30:13.801Z,100610.13
2022-11-28T07:32:41.764Z,100608.25
2022-11-28T07:35:10.625Z,100604.78
2022-11-28T07:37:38.500Z,100614.13
2022-11-28T07:40:08.235Z,100617.53
2022-11-28T07:42:36.745Z,100616.53
2022-11-28T07:45:06.903Z,100617.16
2022-11-28T07:47:35.309Z,100616.38
2022-11-28T07:50:03.277Z,100610.69
2022-11-28T07:52:31.199Z,100625.69
2022-11-28T07:54:59.119Z,100632.19
2022-11-28T07:57:27.055Z,100639.41
2022-11-28T07:59:55.005Z,100635.06
2022-11-28T08:02:24.320Z,100641.28
2022-11-28T08:04:55.270Z,100621.75
2022-11-28T08:07:23.557Z,100631.28
2022-11-28T08:09:51.486Z,100642.88
2022-11-28T08:12:19.343Z,100642.75
2022-11-28T08:14:47.397Z,100649.56
2022-11-28T08:17:15.288Z,100655.47
2022-11-28T08:19:44.532Z,100658.78
2022-11-28T08:22:12.500Z,100655.91
2022-11-28T08:24:40.871Z,100661.06
2022-11-28T08:27:08.993Z,100660.22
2022-11-28T08:29:36.915Z,100667.00
2022-11-28T08:32:05.214Z,100678.44
2022-11-28T08:34:33.084Z,100680.22
2022-11-28T08:37:05.696Z,100688.13
2022-11-28T08:39:34.151Z,100685.25
2022-11-28T08:42:02.871Z,100691.38
2022-11-28T08:44:31.000Z,100700.72
2022-11-28T08:46:59.009Z,100704.88
2022-11-28T08:49:29.998Z,100702.72
2022-11-28T08:51:58.036Z,100706.94
2022-11-28T08:54:27.380Z,100708.47
2022-11-28T08:56:55.238Z,100710.03
2022-11-28T08:59:23.295Z,100718.53
2022-11-28T09:01:53.245Z,100722.81
2022-11-28T09:04:21.498Z,100734.19
2022-11-28T09:06:49.643Z,100727.31
2022-11-28T09:09:17.617Z,100737.22
2022-11-28T09:11:49.972Z,100732.28
2022-11-28T09:14:17.872Z,100744.44
2022-11-28T09:16:46.427Z,100737.22
2022-11-28T09:19:14.382Z,100747.56
2022-11-28T09:21:42.355Z,100750.88
2022-11-28T09:24:10.472Z,100755.28
2022-11-28T09:26:38.409Z,100760.66
2022-11-28T09:29:07.754Z,100759.25
2022-11-28T09:31:35.839Z,100765.72
2022-11-28T09:34:04.881Z,100760.91
2022-11-28T09:36:33.059Z,100773.56
2022-11-28T09:39:00.983Z,100774.66
2022-11-28T09:41:59.942Z,100772.91
2022-11-28T09:44:34.238Z,100771.06
2022-11-28T09:47:04.951Z,100773.88
2022-11-28T09:49:40.339Z,100766.03
2022-11-28T09:52:16.719Z,100774.59
2022-11-28T09:54:46.506Z,100786.47
2022-11-28T09:57:17.744Z,100785.94
2022-11-28T09:59:47.065Z,100776.38
2022-11-28T10:02:22.896Z,100792.78
2022-11-28T10:04:54.289Z,100799.03
2022-11-28T10:07:27.962Z,100812.72
2022-11-28T10:09:59.706Z,100815.75
2022-11-28T10:12:33.304Z,100832.81
2022-11-28T10:15:16.977Z,100842.44
2022-11-28T10:17:48.726Z,100845.53
2022-11-28T10:20:19.243Z,100853.81
2022-11-28T10:22:49.580Z,100845.84
2022-11-28T10:25:21.265Z,100831.72
2022-11-28T10:27:49.466Z,100845.84
2022-11-28T10:30:21.948Z,100854.31
2022-11-28T10:32:54.873Z,100853.31
2022-11-28T10:35:28.618Z,100854.75
2022-11-28T10:37:56.960Z,100847.31
2022-11-28T10:40:28.825Z,100849.97
2022-11-28T10:42:58.328Z,100863.91
2022-11-28T10:45:29.270Z,100876.84
2022-11-28T10:48:38.094Z,100875.34
2022-11-28T10:51:00.338Z,100873.63
2022-11-28T10:53:36.354Z,100865.19
2022-11-28T10:56:11.783Z,100873.16
2022-11-28T10:58:43.059Z,100871.44
2022-11-28T11:01:12.562Z,100875.38
2022-11-28T11:03:40.726Z,100874.53
2022-11-28T11:06:08.640Z,100874.38
2022-11-28T11:08:37.344Z,100866.09
2022-11-28T11:11:06.786Z,100858.25
2022-11-28T11:13:35.384Z,100881.19
2022-11-28T11:16:05.113Z,100890.84
2022-11-28T11:18:36.168Z,100887.28
2022-11-28T11:21:16.913Z,100906.84
2022-11-28T11:23:45.047Z,100901.44
2022-11-28T11:26:21.864Z,100896.22
2022-11-28T11:28:50.267Z,100891.53
2022-11-28T11:31:23.704Z,100886.84
2022-11-28T11:33:54.419Z,100893.97
2022-11-28T11:36:32.985Z,100901.50
2022-11-28T11:39:08.980Z,100908.88
2022-11-28T11:41:36.969Z,100897.22
2022-11-28T11:44:29.785Z,100894.31
2022-11-28T11:46:58.307Z,100885.19
2022-11-28T11:49:32.044Z,100882.66
2022-11-28T11:52:01.995Z,100889.66
2022-11-28T11:54:30.044Z,100900.97
2022-11-28T11:57:25.074Z,100900.81
2022-11-28T11:59:48.386Z,100895.84
2022-11-28T12:02:21.600Z,100892.09
2022-11-28T12:04:55.403Z,100895.13
2022-11-28T12:07:26.359Z,100903.50
2022-11-28T12:09:54.765Z,100892.50
2022-11-28T12:12:23.510Z,100898.69
2022-11-28T12:14:51.579Z,100890.22
2022-11-28T12:20:53.340Z,100914.34
2022-11-28T12:23:34.960Z,100908.69
2022-11-28T12:26:08.099Z,100907.13
2022-11-28T12:28:43.615Z,100921.28
2022-11-28T12:31:14.956Z,100915.47
2022-11-28T12:33:49.135Z,100922.91
2022-11-28T12:36:22.721Z,100929.69
2022-11-28T12:38:59.736Z,100913.38
2022-11-28T12:41:47.957Z,100925.34
2022-11-28T12:44:20.291Z,100915.59
2022-11-28T12:46:50.041Z,100932.34
2022-11-28T12:49:19.431Z,100939.72
2022-11-28T12:51:56.738Z,100938.22
2022-11-28T12:54:52.018Z,100938.34
2022-11-28T12:57:22.815Z,100938.88
2022-11-28T13:00:05.238Z,100939.59
2022-11-28T13:02:43.354Z,100939.66
2022-11-28T13:05:22.876Z,100940.16
2022-11-28T13:08:03.152Z,100940.91
2022-11-28T13:10:35.673Z,100942.41
2022-11-28T13:13:05.638Z,100947.63
2022-11-28T13:15:43.099Z,100958.25
2022-11-28T13:18:16.915Z,100955.06
2022-11-28T13:20:47.110Z,100955.59
2022-11-28T13:23:18.305Z,100958.28
2022-11-28T13:25:48.983Z,100960.19
2022-11-28T13:28:20.503Z,100951.88
2022-11-28T13:30:49.776Z,100952.44
2022-11-28T13:33:28.412Z,100947.22
2022-11-28T13:35:56.544Z,100958.06
2022-11-28T13:38:36.976Z,100958.50
2022-11-28T13:41:28.460Z,100955.66
2022-11-28T13:44:01.971Z,100949.50
2022-11-28T13:46:30.107Z,100958.34
2022-11-28T13:49:21.438Z,100956.78
2022-11-28T13:51:49.759Z,100960.63
2022-11-28T13:54:46.428Z,100967.44
2022-11-28T13:57:30.313Z,100964.34
2022-11-28T14:00:08.949Z,100961.38
2022-11-28T14:02:42.171Z,100967.13
2022-11-28T14:05:30.384Z,100970.09
2022-11-28T14:07:58.497Z,100980.91
2022-11-28T14:10:56.657Z,100979.38
2022-11-28T14:13:38.210Z,100948.44
2022-11-28T14:16:17.681Z,100986.94
2022-11-28T14:18:59.170Z,100987.22
2022-11-28T14:21:32.935Z,100992.50
2022-11-28T14:24:03.214Z,100986.66
2022-11-28T14:26:34.247Z,100989.38
2022-11-28T14:29:02.232Z,100999.59
2022-11-28T14:31:31.375Z,100997.66
2022-11-28T14:34:00.293Z,101004.47
2022-11-28T14:36:29.769Z,100997.84
2022-11-28T14:39:12.955Z,101007.66
2022-11-28T14:42:44.094Z,101008.16
2022-11-28T14:45:38.791Z,101018.81
2022-11-28T14:48:23.103Z,101024.16
2022-11-28T14:51:00.907Z,101029.56
2022-11-28T14:53:44.268Z,101029.47
2022-11-28T14:56:30.848Z,101035.00
2022-11-28T14:59:00.000Z,101042.00
2022-11-28T15:01:51.575Z,101047.41
2022-11-28T15:04:43.996Z,101051.63
2022-11-28T15:07:20.206Z,101050.47
2022-11-28T15:09:50.052Z,101063.44
2022-11-28T15:12:19.386Z,101058.69
2022-11-28T15:14:48.173Z,101062.59
2022-11-28T15:17:16.269Z,101068.19
2022-11-28T15:19:47.479Z,101065.59
2022-11-28T15:22:32.040Z,101065.44
2022-11-28T15:24:59.988Z,101064.72
2022-11-28T15:27:28.309Z,101066.28
2022-11-28T15:29:57.496Z,101061.13
2022-11-28T15:32:26.094Z,101063.94
2022-11-28T15:34:59.453Z,101065.06
2022-11-28T15:37:29.542Z,101064.28
2022-11-28T15:39:58.000Z,101060.81
2022-11-28T15:42:28.356Z,101066.00
2022-11-28T15:45:00.964Z,101085.31
2022-11-28T15:47:28.891Z,101105.19
2022-11-28T15:50:02.561Z,101118.59
2022-11-28T15:52:31.991Z,101105.25
2022-11-28T15:54:59.975Z,101110.31
2022-11-28T15:57:28.586Z,101108.72
2022-11-28T15:59:56.771Z,101097.88
2022-11-28T16:02:28.154Z,101111.50
2022-11-28T16:04:58.605Z,101109.09
2022-11-28T16:07:27.972Z,101110.09
2022-11-28T16:09:59.091Z,101114.47
2022-11-28T16:12:27.711Z,101117.13
2022-11-28T16:15:01.359Z,101114.63
2022-11-28T16:17:31.206Z,101121.00
2022-11-28T16:19:59.340Z,101129.16
2022-11-28T16:22:33.950Z,101131.88
2022-11-28T16:25:12.907Z,101128.41
2022-11-28T16:27:42.195Z,101132.03
2022-11-28T16:30:26.533Z,101134.53
2022-11-28T16:32:55.413Z,101140.50
2022-11-28T16:35:26.961Z,101154.41
2022-11-28T16:38:04.457Z,101155.94
2022-11-28T16:40:32.652Z,101158.41
2022-11-28T16:43:03.229Z,101161.09
2022-11-28T16:45:32.785Z,101163.94
2022-11-28T16:48:06.476Z,101166.50
2022-11-28T16:50:34.477Z,101177.00
2022-11-28T16:53:03.948Z,101197.34
2022-11-28T16:55:39.097Z,101192.16
2022-11-28T16:58:20.524Z,101199.56
2022-11-28T17:01:00.617Z,101202.84
2022-11-28T17:03:48.331Z,101194.41
2022-11-28T17:06:24.932Z,101211.56
2022-11-28T17:08:54.194Z,101216.41
2022-11-28T17:11:23.757Z,101206.47
2022-11-28T17:13:51.840Z,101233.66
2022-11-28T17:16:20.911Z,101227.53
2022-11-28T17:18:48.958Z,101227.72
2022-11-28T17:21:17.691Z,101234.94
2022-11-28T17:23:45.619Z,101250.50
2022-11-28T17:26:15.142Z,101241.44
2022-11-28T17:28:43.097Z,101246.16
2022-11-28T17:31:11.594Z,101252.75
2022-11-28T17:33:44.473Z,101255.81
2022-11-28T17:36:13.201Z,101250.75
2022-11-28T17:38:41.108Z,101256.38
2022-11-28T17:41:12.521Z,101253.28
2022-11-28T17:43:41.858Z,101267.41
2022-11-28T17:46:09.918Z,101260.38
2022-11-28T17:48:37.914Z,101270.88
2022-11-28T17:51:06.181Z,101277.06
2022-11-28T17:53:34.216Z,101275.13
2022-11-28T17:56:02.114Z,101277.72
2022-11-28T17:58:30.111Z,101284.56
2022-11-28T18:01:00.900Z,101294.09
2022-11-28T18:03:29.220Z,101297.44
2022-11-28T18:05:57.420Z,101301.75
2022-11-28T18:08:25.302Z,101303.38
2022-11-28T18:11:04.352Z,101311.09
2022-11-28T18:13:32.997Z,101310.97
2022-11-28T18:16:02.350Z,101312.84
2022-11-28T18:18:30.361Z,101283.09
2022-11-28T18:20:58.509Z,101321.47
2022-11-28T18:23:26.377Z,101321.44
2022-11-28T18:25:54.297Z,101319.63
2022-11-28T18:28:22.292Z,101332.03
2022-11-28T18:30:50.727Z,101333.81
2022-11-28T18:33:20.002Z,101330.28
2022-11-28T18:35:47.964Z,101332.94
2022-11-28T18:38:15.827Z,101338.97
2022-11-28T18:40:43.756Z,101330.25
2022-11-28T18:43:11.704Z,101351.13
2022-11-28T18:45:39.774Z,101348.28
2022-11-28T18:48:07.805Z,101362.28
2022-11-28T18:50:37.313Z,101367.47
2022-11-28T18:53:05.211Z,101365.75
2022-11-28T18:55:33.150Z,101370.28
2022-11-28T18:58:01.708Z,101379.38
2022-11-28T19:00:29.603Z,101384.81
2022-11-28T19:02:57.540Z,101391.25
2022-11-28T19:05:25.539Z,101401.19
2022-11-28T19:07:55.229Z,101404.84
2022-11-28T19:10:23.159Z,101403.19
2022-11-28T19:12:51.021Z,101400.66
2022-11-28T19:15:18.948Z,101409.72
2022-11-28T19:17:46.815Z,101412.47
2022-11-28T19:20:14.882Z,101419.72
2022-11-28T19:22:42.839Z,101423.41
2022-11-28T19:25:12.961Z,101422.66
2022-11-28T19:27:40.863Z,101428.81
2022-11-28T19:30:09.860Z,101426.06
2022-11-28T19:32:37.768Z,101427.72
2022-11-28T19:35:06.156Z,101418.09
2022-11-28T19:37:34.025Z,101434.66
2022-11-28T19:40:02.987Z,101435.56
2022-11-28T19:42:32.540Z,101437.31
2022-11-28T19:45:00.464Z,101444.50
2022-11-28T19:47:28.342Z,101443.56
2022-11-28T19:49:56.276Z,101443.63
2022-11-28T19:52:24.191Z,101440.91
2022-11-28T19:54:52.656Z,101443.56
2022-11-28T19:57:20.821Z,101446.22
2022-11-28T19:59:50.111Z,101448.78
2022-11-28T20:02:21.527Z,101443.47
2022-11-28T20:04:49.537Z,101454.84
2022-11-28T20:07:17.510Z,101459.28
2022-11-28T20:09:45.775Z,101465.50
2022-11-28T20:12:13.850Z,101466.56
2022-11-28T20:14:42.980Z,101462.38
2022-11-28T20:17:12.241Z,101471.34
2022-11-28T20:19:40.202Z,101480.44
2022-11-28T20:22:08.119Z,101475.38
2022-11-28T20:24:36.075Z,101479.00
2022-11-28T20:27:04.043Z,101487.00
2022-11-28T20:29:33.312Z,101484.41
2022-11-28T20:32:01.356Z,101486.28
2022-11-28T20:34:30.721Z,101482.78
2022-11-28T20:36:59.444Z,101490.72
2022-11-28T20:39:27.421Z,101495.06
2022-11-28T20:41:55.300Z,101500.16
2022-11-28T20:44:23.354Z,101497.31
2022-11-28T20:46:51.230Z,101503.38
2022-11-28T20:49:19.147Z,101505.94
2022-11-28T20:51:50.293Z,101511.25
2022-11-28T20:54:18.326Z,101510.38
2022-11-28T20:57:18.989Z,101512.31
2022-11-28T20:59:35.280Z,101509.91
2022-11-28T21:02:03.313Z,101513.63
2022-11-28T21:04:31.372Z,101519.13
2022-11-28T21:07:00.672Z,101520.97
2022-11-28T21:09:28.584Z,101525.50
2022-11-28T21:11:59.270Z,101526.44
2022-11-28T21:14:28.365Z,101534.44
2022-11-28T21:16:56.636Z,101532.78
2022-11-28T21:19:25.698Z,101533.75
2022-11-28T21:21:53.890Z,101529.56
2022-11-28T21:24:23.160Z,101533.94
2022-11-28T21:26:54.118Z,101533.13
2022-11-28T21:29:23.042Z,101536.69
2022-11-28T21:31:50.999Z,101533.13
2022-11-28T21:34:19.546Z,101535.78
2022-11-28T21:36:47.803Z,101533.09
2022-11-28T21:39:16.604Z,101539.19
2022-11-28T21:41:46.268Z,101540.81
2022-11-28T21:44:14.401Z,101549.59
2022-11-28T21:46:42.295Z,101546.13
2022-11-28T21:49:10.246Z,101546.13
2022-11-28T21:51:38.135Z,101543.69
2022-11-28T21:54:06.205Z,101545.53
2022-11-28T21:56:34.172Z,101546.59
2022-11-28T21:59:04.376Z,101550.19
2022-11-28T22:01:32.266Z,101552.06
2022-11-28T22:04:02.785Z,101558.34
2022-11-28T22:06:31.175Z,101559.22
2022-11-28T22:08:59.436Z,101560.84
2022-11-28T22:11:27.830Z,101566.03
2022-11-28T22:13:55.723Z,101582.59
2022-11-28T22:16:26.536Z,101575.38
2022-11-28T22:18:55.768Z,101585.75
2022-11-28T22:24:12.182Z,101584.41
2022-11-28T22:26:40.126Z,101584.31
2022-11-28T22:29:08.029Z,101589.56
2022-11-28T22:31:37.352Z,101590.44
2022-11-28T22:34:05.311Z,101587.78
2022-11-28T22:36:34.422Z,101591.50
2022-11-28T22:39:02.847Z,101583.72
2022-11-28T22:41:30.797Z,101590.03
2022-11-28T22:43:59.575Z,101588.41
2022-11-28T22:46:27.617Z,101585.81
2022-11-28T22:48:56.921Z,101595.66
2022-11-28T22:51:25.897Z,101579.56
2022-11-28T22:53:54.436Z,101584.78
2022-11-28T22:56:22.601Z,101596.97
2022-11-28T22:58:50.476Z,101604.69
2022-11-28T23:01:19.252Z,101599.31
2022-11-28T23:03:47.405Z,101605.53
2022-11-28T23:06:18.222Z,101607.97
2022-11-28T23:08:46.123Z,101600.84
2022-11-28T23:11:15.402Z,101599.75
2022-11-28T23:13:43.636Z,101606.66
2022-11-28T23:16:12.788Z,101609.28
2022-11-28T23:18:40.835Z,101614.66
2022-11-28T23:21:08.915Z,101615.47
2022-11-28T23:23:38.192Z,101619.94
2022-11-28T23:26:06.171Z,101626.97
2022-11-28T23:28:34.070Z,101633.97
2022-11-28T23:31:06.657Z,101635.59
2022-11-28T23:33:34.572Z,101640.75
2022-11-28T23:36:02.452Z,101639.72
2022-11-28T23:38:30.951Z,101636.00
2022-11-28T23:41:00.354Z,101636.81
2022-11-28T23:43:28.224Z,101629.81
2022-11-28T23:45:56.198Z,101644.66
2022-11-28T23:48:24.124Z,101638.41
2022-11-28T23:50:52.043Z,101639.31
2022-11-28T23:53:19.882Z,101642.06
2022-11-28T23:55:47.840Z,101641.13
2022-11-28T23:58:17.100Z,101648.25
